Espace membre
Imprimable
Challenges > Delhalle - Bousval, 06/03/2016, BEL - Le Cross de Bousval
Liste des rapports > 10 km - Classement
Recherche: Page: [1]
117 Entrées
 
Les réclamations ne sont plus acceptées, les résultats sont considérés comme définitifs.
Catégorie
PosNrNomAgeIOCLigueEquipeRéelTempsTkmMoy.RangNomLocalité
1.9148GILLET CHRISTIAN52BEL40:2040:204:02 14.881ve2BRUXELLES
2.9153CORBIER MATHIAS26BELCS DYLE41:3741:374:10 14.421sen
3.9175DE CREMER FABIAN35BELULTIMO TRAKKS42:0842:084:13 14.252sen
4.9137DUPUIS DAVID31BEL43:2843:294:21 13.803sen
5.9202FLOYMONT JULIEN30BELMX MAN46:0946:114:38 13.004sen
6.9219FLAMENT PATRICE45BELDOG'S LAND46:2346:234:39 12.941ve1JEMEPPE SUR SAMBRE
7.3669CHARASSON OLIVIER41BEL47:1547:164:44 12.692ve1ANDERLECHT
8.9145BALLAERT NICOLAS27BEL47:5348:094:49 12.465sen
9.9131PIRAUX DIDIER47BELANTILOB48:3548:384:52 12.343ve1
10.9161COCHETEUX PHILIPPE44BEL48:4048:494:53 12.294ve1
11.9172LEDECQ FABRICE50BELRIWA48:4848:514:54 12.282ve2
12.9160HEURION BERTRAND36BELVERTIGO49:3849:394:58 12.096sen
13.9157MUBARAK BASILE24BEL50:1350:175:02 11.947sen
14.9218SOLBREUX GUILLAUME32BELDOGS LAND TEAM50:4650:475:05 11.828sen
15.9183SPRIMONT FRANCOIS24BEL51:1651:185:08 11.709sen
16.9214JORISSEN PHILIPPE50BEL51:0951:505:11 11.583ve2
17.9130GRUN JEROME37BEL53:1553:295:21 11.2210sen
18.9129LAMBERT BELLIE MICHEL50BEL53:2353:375:22 11.194ve2
19.9191ANGELY OLIVIER28BEL53:5754:015:25 11.1111sen
20.9235LOUAGIE JOHN43BELCABWNAC54:2154:235:27 11.035ve1
21.9199FONTEYN LAURENT39BEL54:3854:385:28 10.9812sen
22.9147DELOBBE FABIEN36BEL55:0555:135:32 10.8713sen
23.9197FREMY SAMANTHA29BELSPIBO55:1955:195:32 10.851damMONS
24.9200FBOURGUET AUDREY31BEL55:0955:205:32 10.852dam
25.9206VELEZ LEONARDO35BELENJAMBEE55:3155:425:35 10.7714sen
26.9192ANGÉLY GAETAN69BELWATERLOO RUNNER55:4355:465:35 10.761ve3WATERLOO
27.9144FWALRAVENS LEA63BELNAC55:5055:525:36 10.741ai3
28.9201VAN DOREN LAURENT45BEL55:5955:595:36 10.726ve1COURT-ST-ETIENNE
29.9225FEGA CAROLINE28BELJC HSHS56:2656:285:39 10.633dam
30.9167SOUBRY FRANCOIS32BEL57:0457:165:44 10.4815sen
31.9164CLEVERS ANTOINE33BEL57:5058:075:49 10.3316sen
32.9133VAN HAVERBEKE CHRISTOPHE47BEL58:0658:155:50 10.307ve1
33.9195FLEMBOURG MARIE31BEL58:0158:195:50 10.294dam
34.9170MUSCH BENOIT45BEL58:1958:225:51 10.288ve1
35.9207FCAPRON CATHERINE42BEL58:1858:305:51 10.261ai1MONTIGNY LE TILLEUL
36.2966FJOACHIM ELISE33BEL58:1458:305:51 10.265damCORROY-LE-CHATEAU
37.9222GOUDMAEKER CLAUDE56BELJE COURS À INCO58:1958:305:51 10.265ve2
38.9178VANCUTSEM BERTRAND35BELJETJET58:2758:385:52 10.2417sen
39.9186WILLAME DIDIER50BELTURBO58:4158:495:53 10.206ve2
40.9162FSIMON FLORENCE45BEL58:5159:045:55 10.162ai1
41.9174CHALON NICOLAS38BEL59:421:00:006:00 10.0018senBOUSVAL
42.9166VERSBEECK GEERT37BEL59:421:00:016:01 10.0019sen
43.9146MARCOUX NICOLAS37BEL1:00:151:00:226:03 9.9420sen
44.9143GOSSELAIN YVES49BEL1:00:101:00:236:03 9.949ve1
45.9185WERRES MARC53BEL1:00:321:00:366:04 9.907ve2
46.9233FFRANCE JULIE32BEL1:00:361:00:516:06 9.866damCOURT-ST-ETIENNE
47.9134FLAMBERT JULIETTE16BEL1:00:491:01:046:07 9.831esf
48.3678FWINAND VALÉRIE39BEL1:00:511:01:056:07 9.827damETTERBEEK
49.3691FVLAMINCK NATACHA43BEL1:01:071:01:256:09 9.773ai1WAVRE
50.9136DEGREEF FREDERIC36BELJCPMF1:01:131:01:256:09 9.7721sen
51.9150VERSTICHEL THIERRY52BEL1:01:241:01:286:09 9.768ve2
52.9135VOICU CRISTIAN29BEL1:01:231:01:396:10 9.7322sen
53.9221LEUNEN GEOFFREY43BEL1:01:391:01:466:11 9.7110ve1
54.9196VERMEIREN JEREMY33BEL1:02:021:02:026:13 9.6723sen
55.9226MORO LAVADO AMBROSIO53BELJET1:02:041:02:146:14 9.649ve2
56.9165FEL BAKRI MATHILDE31BEL1:01:551:02:156:14 9.648dam
57.9237FSTERCKX FABIENNE48BELJC HSH1:02:211:02:246:15 9.624ai1
58.9239FDEKEYZER CATHERINE51BELJC HSH1:02:221:02:256:15 9.611ai2
59.9132COGNEAU DENIS47BEL1:02:211:02:296:15 9.6011ve1
60.9156ABBAS BARAM54BEL1:03:171:03:296:21 9.4510ve2
61.9238FDEGROOTE MARIANNE28BEL1:03:381:03:446:23 9.429dam
62.9229FLAGAERT RITA62BELJET1:04:031:04:056:25 9.362ai3
63.9216FLECLERCQ SARAH37BELSPIBO1:04:381:04:406:28 9.2810damHERCHIES
64.9163FBLATTER NATHALIE43BEL1:04:381:04:476:29 9.265ai1
65.9230FERRIÈRE MATHIEU42BEL1:04:451:04:506:29 9.2612ve1BOUSVAL
66.9149DUPUIS BENOIT64BELJAMES1:05:221:05:286:33 9.172ve3
67.9127FWOCILLARO CATHERINE42BEL1:05:301:05:486:35 9.126ai1
68.9228CHARLIER BAUDOIN65BELJET1:05:441:05:536:36 9.113ve3
69.9142FCHELLI YARIA47BEL1:05:471:06:016:37 9.097ai1
70.9208FCLUYSE ANNE50BELJAMESJAMES1:07:011:07:076:43 8.942ai2
71.9155FREMY NOELLE34BELSPT WAVRE1:07:011:07:086:43 8.9411dam
72.9220FSTRODIOT LAURENCE35BEL1:07:001:07:116:44 8.9312dam
73.9210FWILLEMS ADELAINE36BEL1:07:111:07:226:45 8.9113dam
74.9213DENIS ERIC45BEL1:07:091:07:286:45 8.8913ve1
75.9223FVERSAILLES ELISABETH44BELRIWARIWA1:07:231:07:316:46 8.898ai1
76.9217FBEQUET GINETTE66BELJETJET1:07:491:07:536:48 8.843ai3OPHAIN BSI
77.9158OLIVIER FABRICE45BEL1:08:031:08:046:49 8.8214ve1
78.9240FJABER ALICIA28BEL1:08:091:08:156:50 8.7914dam
79.9169MUSCH YVES57BEL1:08:151:08:186:50 8.7911ve2
80.9190FSIBILLE CECILE46BELUACUAC1:08:111:08:316:52 8.769ai1
81.9154FMUVETTE DEBORAH43BEL1:08:401:08:406:52 8.7410ai1
82.3712FVAN DEN PUT SONIA54BEL1:08:401:08:476:53 8.723ai2BIEZ
83.9138FNOON CAOLE31BEL1:09:281:09:326:58 8.6315dam
84.9209FDEHAYE ANNE45BELJAMESJAMES1:09:411:09:476:59 8.6011ai1
85.9189VAN CRAENENBROECK PASCAL53BELLDLV1:09:391:09:476:59 8.6012ve2
86.9141FBERTRAND CECILE45BEL1:10:251:10:297:03 8.5112ai1
87.9231FCERINI CARLA49BELESM1:10:351:10:477:05 8.4813ai1
88.3686FWINDERICKX KARIANE28BEL1:10:471:11:027:07 8.4516damHORRUES
89.9188FRAGUZZI NADIA50BELUACUAC1:10:461:11:067:07 8.444ai2
90.9151FDE TERWANGNE ANNICK51BELJCPMF GENAPPE1:11:131:11:197:08 8.415ai2VILLERS LA VILLE
91.9180FMUSCH ELISE17BEL1:11:391:11:497:11 8.352esf
92.3674FCARRIERE ANNE34BEL1:12:001:12:107:13 8.3117damLOUPOIGNE
93.9181FDEBUSSCHER ANNE49BEL1:12:091:12:257:15 8.2914ai1BRUXELLES
94.9205FGODECHOUL CHRISTINE45BEL1:12:211:12:317:16 8.2715ai1
95.9184FHOOGSTEYN FRÉDÉRIQUE44BELCLINIQUE ST JEA1:12:211:12:327:16 8.2716ai1LOUPOIGNE
96.9194FDOHET AGNES49BELUACUAC1:12:131:12:327:16 8.2717ai1
97.9187FDELSART MARIE-NOELLE36BELUACUAC1:12:151:12:367:16 8.2718dam
98.9140FGARSIDE ICAREN55BEL1:12:511:12:567:18 8.236ai2
99.9176DEWULF JULIEN16BEL1:12:591:13:197:20 8.181esp
100.9212FCLOSSE CARINE50BELCSFMYSTERE1:13:101:13:287:21 8.177ai2BRUXELLES
101.9204FCATTIN CELINE40BELMYSTERE1:13:101:13:287:21 8.1718ai1
102.9152FREVESZ PATRICIA54BEL1:13:411:13:467:23 8.138ai2BOUSVAL
103.9182FDEWULF ERIKA45BEL1:13:531:14:117:26 8.0919ai1SAUVAGEMONT (LASNE)
104.9177VLAMINCK GEORGES74BELTENDONS1:14:321:14:477:29 8.021ve4LA HULPE
105.9236FGRANDMONT ANITA49NLDJCPMF GENAPPE1:14:591:15:147:32 7.9820ai1BOUSVAL
106.9198DE DECKER MICHEL36BEL1:15:471:15:597:36 7.9024sen
107.9171PATTIJN CHRISTOPHE43BEL1:15:591:16:007:36 7.9015ve1
108.9232FGECELE CAROLINE53ITAJCPMF GENAPPE1:16:471:17:017:43 7.799ai2BAISY THY
109.9159FLEVEQUE FABIENNE54BELJCPMF GENAPPE1:18:471:19:067:55 7.5910ai2
110.9193FFREVILLE ELSA44FRA1:19:331:19:538:00 7.5121ai1WOLUWÉ ST LAMBERT
111.9173FELIARD CECILE38BELJCPMF GENAPPE1:20:441:20:488:05 7.4319dam
112.9227FDURITA SNJEZAN52BELJ.E.T.1:22:471:23:008:18 7.2311ai2ENGHIEN
113.9224FBRICHET MARTINE59BELJ.E.T.1:24:311:24:448:29 7.0812ai2ENGHIEN
114.9139FVALLE RAMIREZ MARIA45BELJOGGANS1:25:541:26:088:37 6.9722ai1
115.9168FHAYET CHRISTINE50BELJCPMF GENAPPE1:33:461:33:559:24 6.3913ai2
DNF9128COPETTERS BRUNO60BELve3
DNF9179PARADA DAVID38ESPJOGGING TUBIZEsen
DNF: abandon; DSQ: disqualifié; Vitesse en km/h
Page: [1]